createdAt,value
2019-03-06T00:01:22.747Z,76.29
2019-03-06T00:03:50.205Z,76.07
2019-03-06T00:06:17.781Z,76.45
2019-03-06T00:08:45.306Z,77.13
2019-03-06T00:11:12.808Z,77.92
2019-03-06T00:13:40.257Z,79.00
2019-03-06T00:16:07.903Z,79.54
2019-03-06T00:18:35.249Z,78.80
2019-03-06T00:21:03.296Z,80.37
2019-03-06T00:23:30.755Z,79.82
2019-03-06T00:25:58.377Z,79.58
2019-03-06T00:28:25.813Z,79.51
2019-03-06T00:30:53.354Z,80.20
2019-03-06T00:33:20.933Z,77.75
2019-03-06T00:35:49.611Z,77.99
2019-03-06T00:38:17.067Z,79.16
2019-03-06T00:40:49.825Z,80.10
2019-03-06T00:43:17.242Z,80.74
2019-03-06T00:45:44.949Z,81.03
2019-03-06T00:48:12.402Z,81.25
2019-03-06T00:50:39.925Z,82.29
2019-03-06T00:53:07.324Z,82.77
2019-03-06T00:55:34.765Z,82.89
2019-03-06T00:58:02.317Z,82.81
2019-03-06T01:00:29.762Z,83.09
2019-03-06T01:02:57.199Z,82.77
2019-03-06T01:05:25.039Z,83.32
2019-03-06T01:07:52.403Z,83.24
2019-03-06T01:10:20.049Z,83.47
2019-03-06T01:12:47.618Z,83.61
2019-03-06T01:15:15.224Z,83.90
2019-03-06T01:17:42.793Z,84.56
2019-03-06T01:20:10.535Z,85.33
2019-03-06T01:22:38.015Z,85.17
2019-03-06T01:25:06.095Z,85.62
2019-03-06T01:27:33.466Z,86.20
2019-03-06T01:30:00.963Z,86.85
2019-03-06T01:32:29.003Z,86.97
2019-03-06T01:35:14.796Z,87.25
2019-03-06T01:37:53.461Z,86.67
2019-03-06T01:40:34.496Z,87.38
2019-03-06T01:43:08.022Z,87.42
2019-03-06T01:45:35.456Z,88.16
2019-03-06T01:48:02.905Z,88.59
2019-03-06T01:50:30.566Z,89.02
2019-03-06T01:52:58.008Z,90.04
2019-03-06T01:55:25.377Z,90.04
2019-03-06T01:57:52.932Z,89.99
2019-03-06T02:00:21.044Z,90.77
2019-03-06T02:02:48.746Z,91.21
2019-03-06T02:05:16.647Z,91.33
2019-03-06T02:07:44.335Z,90.76
2019-03-06T02:10:12.540Z,88.70
2019-03-06T02:12:39.999Z,89.13
2019-03-06T02:15:08.644Z,88.17
2019-03-06T02:17:36.324Z,88.80
2019-03-06T02:20:04.962Z,90.41
2019-03-06T02:22:32.510Z,90.80
2019-03-06T02:24:59.960Z,90.81
2019-03-06T02:27:27.445Z,90.86
2019-03-06T02:29:55.020Z,90.78
2019-03-06T02:32:22.518Z,91.29
2019-03-06T02:34:49.992Z,89.11
2019-03-06T02:37:17.409Z,89.49
2019-03-06T02:39:44.873Z,90.64
2019-03-06T02:42:12.321Z,90.73
2019-03-06T02:44:40.232Z,92.00
2019-03-06T02:47:07.743Z,93.02
2019-03-06T02:49:35.188Z,93.36
2019-03-06T02:52:02.664Z,94.32
2019-03-06T02:54:30.102Z,94.75
2019-03-06T02:56:57.559Z,94.54
2019-03-06T02:59:34.242Z,94.66
2019-03-06T03:02:27.453Z,94.67
2019-03-06T03:05:20.796Z,94.53
2019-03-06T03:07:48.290Z,95.69
2019-03-06T03:10:15.819Z,95.21
2019-03-06T03:12:43.291Z,95.70
2019-03-06T03:15:10.842Z,95.70
2019-03-06T03:17:38.268Z,94.24
2019-03-06T03:20:05.932Z,91.83
2019-03-06T03:22:33.453Z,92.66
2019-03-06T03:25:00.933Z,92.50
2019-03-06T03:27:28.405Z,93.44
2019-03-06T03:29:55.988Z,94.27
2019-03-06T03:32:23.502Z,94.04
2019-03-06T03:34:50.951Z,93.92
2019-03-06T03:37:18.323Z,93.82
2019-03-06T03:39:45.770Z,92.75
2019-03-06T03:42:13.262Z,92.17
2019-03-06T03:44:40.658Z,92.71
2019-03-06T03:47:08.111Z,92.09
2019-03-06T03:49:35.593Z,91.86
2019-03-06T03:52:03.073Z,90.97
2019-03-06T03:54:30.490Z,90.42
2019-03-06T03:56:57.881Z,90.75
2019-03-06T03:59:25.559Z,91.34
2019-03-06T04:01:53.247Z,91.37
2019-03-06T04:04:20.782Z,90.57
2019-03-06T04:06:48.424Z,90.05
2019-03-06T04:09:15.975Z,91.13
2019-03-06T04:11:43.361Z,92.53
2019-03-06T04:14:11.291Z,93.05
2019-03-06T04:16:38.731Z,93.50
2019-03-06T04:19:06.308Z,91.56
2019-03-06T04:21:33.867Z,92.48
2019-03-06T04:24:01.474Z,92.46
2019-03-06T04:26:29.211Z,92.37
2019-03-06T04:28:56.975Z,92.36
2019-03-06T04:31:24.446Z,91.08
2019-03-06T04:33:51.820Z,90.25
2019-03-06T04:36:19.247Z,90.41
2019-03-06T04:38:46.689Z,92.02
2019-03-06T04:41:14.258Z,91.25
2019-03-06T04:43:41.949Z,92.10
2019-03-06T04:46:09.501Z,92.81
2019-03-06T04:48:36.924Z,93.01
2019-03-06T04:51:04.306Z,93.21
2019-03-06T04:53:31.751Z,91.54
2019-03-06T04:55:59.193Z,90.28
2019-03-06T04:58:26.615Z,89.76
2019-03-06T05:00:54.191Z,90.72
2019-03-06T05:03:21.726Z,90.51
2019-03-06T05:05:49.241Z,90.40
2019-03-06T05:08:16.613Z,91.24
2019-03-06T05:10:44.256Z,92.62
2019-03-06T05:13:11.713Z,93.64
2019-03-06T05:15:39.273Z,94.33
2019-03-06T05:18:20.592Z,94.16
2019-03-06T05:20:48.094Z,95.62
2019-03-06T05:23:15.647Z,97.23
2019-03-06T05:25:43.152Z,98.50
2019-03-06T05:28:10.661Z,98.45
2019-03-06T05:30:38.169Z,97.91
2019-03-06T05:33:06.639Z,96.82
2019-03-06T05:36:17.689Z,95.95
2019-03-06T05:39:01.278Z,95.42
2019-03-06T05:41:28.836Z,94.29
2019-03-06T05:43:56.794Z,94.08
2019-03-06T05:46:24.286Z,92.63
2019-03-06T05:48:52.252Z,91.75
2019-03-06T05:51:19.933Z,92.72
2019-03-06T05:53:47.987Z,92.90
2019-03-06T05:56:15.509Z,92.93
2019-03-06T05:58:42.984Z,91.62
2019-03-06T06:01:10.516Z,90.79
2019-03-06T06:03:37.918Z,90.45
2019-03-06T06:06:05.518Z,89.54
2019-03-06T06:08:33.077Z,88.58
2019-03-06T06:11:00.654Z,87.00
2019-03-06T06:13:28.121Z,85.39
2019-03-06T06:15:55.800Z,84.57
2019-03-06T06:18:23.333Z,84.53
2019-03-06T06:21:00.564Z,84.62
2019-03-06T06:23:43.786Z,83.44
2019-03-06T06:26:11.380Z,83.71
2019-03-06T06:28:39.063Z,82.04
2019-03-06T06:31:06.578Z,81.70
2019-03-06T06:33:34.546Z,81.27
2019-03-06T06:36:01.974Z,81.04
2019-03-06T06:38:29.412Z,80.92
2019-03-06T06:40:56.867Z,78.85
2019-03-06T06:43:24.380Z,79.15
2019-03-06T06:45:51.841Z,78.67
2019-03-06T06:48:20.745Z,79.49
2019-03-06T06:51:01.647Z,78.56
2019-03-06T06:54:06.216Z,77.85
2019-03-06T06:57:13.302Z,78.39
2019-03-06T07:00:14.810Z,77.21
2019-03-06T07:03:39.745Z,75.16
2019-03-06T07:06:26.715Z,75.26
2019-03-06T07:09:06.829Z,73.74
2019-03-06T07:11:41.598Z,74.88
2019-03-06T07:14:19.233Z,75.14
2019-03-06T07:17:06.230Z,73.74
2019-03-06T07:19:40.962Z,74.52
2019-03-06T07:22:46.334Z,71.74
2019-03-06T07:25:32.151Z,72.45
2019-03-06T07:28:04.599Z,73.46
2019-03-06T07:30:50.597Z,74.64
2019-03-06T07:33:37.633Z,75.77
2019-03-06T07:36:33.640Z,77.00
2019-03-06T07:39:19.530Z,77.66
2019-03-06T07:42:15.538Z,83.31
2019-03-06T07:45:37.703Z,85.90
2019-03-06T07:48:14.216Z,85.42
2019-03-06T07:50:56.885Z,86.09
2019-03-06T07:54:24.146Z,86.68
2019-03-06T07:56:55.501Z,85.42
2019-03-06T07:59:23.137Z,83.54
2019-03-06T08:01:54.302Z,83.66
2019-03-06T08:04:21.786Z,83.90
2019-03-06T08:07:02.616Z,81.42
2019-03-06T08:09:30.125Z,79.54
2019-03-06T08:12:07.152Z,78.80
2019-03-06T08:14:59.716Z,78.26
2019-03-06T08:17:32.926Z,77.98
2019-03-06T08:20:14.010Z,72.55
2019-03-06T08:23:00.911Z,73.64
2019-03-06T08:25:47.104Z,74.27
2019-03-06T08:28:14.767Z,75.44
2019-03-06T08:30:49.876Z,76.11
2019-03-06T08:33:18.382Z,75.16
2019-03-06T08:35:46.168Z,74.28
2019-03-06T08:38:13.532Z,74.64
2019-03-06T08:40:41.146Z,75.07
2019-03-06T08:43:09.889Z,74.54
2019-03-06T08:45:47.634Z,74.01
2019-03-06T08:48:26.986Z,73.52
2019-03-06T08:51:00.367Z,72.59
2019-03-06T08:53:35.322Z,73.14
2019-03-06T08:56:31.156Z,72.35
2019-03-06T08:59:06.908Z,72.12
2019-03-06T09:02:00.440Z,70.36
2019-03-06T09:04:48.673Z,70.72
2019-03-06T09:07:23.828Z,70.80
2019-03-06T09:10:01.446Z,69.55
2019-03-06T09:13:06.573Z,70.14
2019-03-06T09:15:52.462Z,69.86
2019-03-06T09:18:38.496Z,69.72
2019-03-06T09:21:13.295Z,69.81
2019-03-06T09:24:18.392Z,70.34
2019-03-06T09:26:51.822Z,70.53
2019-03-06T09:29:44.878Z,68.35
2019-03-06T09:32:43.866Z,68.19
2019-03-06T09:35:27.294Z,65.75
2019-03-06T09:38:13.022Z,67.30
2019-03-06T09:41:11.540Z,67.52
2019-03-06T09:44:04.346Z,68.93
2019-03-06T09:46:54.297Z,71.98
2019-03-06T09:49:34.087Z,70.40
2019-03-06T09:52:14.056Z,71.81
2019-03-06T09:54:59.620Z,71.41
2019-03-06T09:57:36.600Z,71.46
2019-03-06T10:00:34.209Z,71.07
2019-03-06T10:03:14.428Z,70.93
2019-03-06T10:06:07.668Z,70.60
2019-03-06T10:08:41.670Z,70.64
2019-03-06T10:11:31.517Z,70.36
2019-03-06T10:14:04.045Z,70.01
2019-03-06T10:16:53.805Z,67.91
2019-03-06T10:19:29.600Z,66.09
2019-03-06T10:21:59.202Z,64.60
2019-03-06T10:24:26.862Z,62.74
2019-03-06T10:26:54.250Z,59.97
2019-03-06T10:29:22.068Z,58.24
2019-03-06T10:31:49.602Z,56.66
2019-03-06T10:34:17.418Z,55.77
2019-03-06T10:36:44.833Z,54.08
2019-03-06T10:39:14.936Z,52.25
2019-03-06T10:41:42.492Z,49.67
2019-03-06T10:44:10.331Z,50.23
2019-03-06T10:46:37.902Z,46.91
2019-03-06T10:49:05.518Z,46.54
2019-03-06T10:51:33.091Z,45.82
2019-03-06T10:54:00.606Z,45.58
2019-03-06T10:56:28.509Z,41.78
2019-03-06T10:58:56.947Z,42.24
2019-03-06T11:01:24.604Z,41.87
2019-03-06T11:04:08.789Z,42.83
2019-03-06T11:06:36.553Z,41.56
2019-03-06T11:09:07.785Z,41.34
2019-03-06T11:11:35.359Z,38.92
2019-03-06T11:14:06.472Z,38.72
2019-03-06T11:16:38.294Z,39.07
2019-03-06T11:19:03.390Z,39.14
2019-03-06T11:21:30.916Z,34.05
2019-03-06T11:23:58.374Z,33.93
2019-03-06T11:26:26.725Z,34.35
2019-03-06T11:28:54.285Z,33.45
2019-03-06T11:31:22.062Z,33.54
2019-03-06T11:33:49.508Z,33.47
2019-03-06T11:36:17.586Z,32.16
2019-03-06T11:38:45.084Z,31.06
2019-03-06T11:41:12.571Z,30.51
2019-03-06T11:43:40.225Z,29.37
2019-03-06T11:46:08.539Z,29.68
2019-03-06T11:48:36.245Z,29.43
2019-03-06T11:51:04.103Z,29.00
2019-03-06T11:53:32.950Z,28.86
2019-03-06T11:56:00.813Z,28.60
2019-03-06T11:58:28.411Z,29.00
2019-03-06T12:00:56.008Z,28.51
2019-03-06T12:03:23.787Z,29.35
2019-03-06T12:05:51.618Z,29.79
2019-03-06T12:08:19.545Z,32.51
2019-03-06T12:10:47.444Z,33.33
2019-03-06T12:13:15.930Z,34.18
2019-03-06T12:15:45.994Z,34.56
2019-03-06T12:18:14.230Z,34.77
2019-03-06T12:20:42.213Z,34.08
2019-03-06T12:23:09.652Z,34.48
2019-03-06T12:25:37.910Z,34.33
2019-03-06T12:28:07.061Z,33.26
2019-03-06T12:30:34.904Z,32.35
2019-03-06T12:33:02.731Z,32.54
2019-03-06T12:35:30.132Z,30.64
2019-03-06T12:37:57.690Z,31.47
2019-03-06T12:40:25.800Z,30.71
2019-03-06T12:42:53.220Z,30.96
2019-03-06T12:45:20.928Z,31.33
2019-03-06T12:47:55.211Z,31.34
2019-03-06T12:50:20.405Z,30.24
2019-03-06T12:52:47.983Z,30.64
2019-03-06T12:55:15.541Z,30.52
2019-03-06T12:57:43.052Z,30.78
2019-03-06T13:00:17.775Z,32.22
2019-03-06T13:02:45.599Z,32.36
2019-03-06T13:05:13.554Z,32.13
2019-03-06T13:07:41.072Z,32.21
2019-03-06T13:10:09.733Z,32.65
2019-03-06T13:12:38.242Z,31.37
2019-03-06T13:15:07.348Z,30.90
2019-03-06T13:17:36.380Z,29.98
2019-03-06T13:20:06.439Z,30.46
2019-03-06T13:22:34.022Z,30.18
2019-03-06T13:25:01.635Z,30.75
2019-03-06T13:27:29.074Z,30.82
2019-03-06T13:29:56.649Z,29.99
2019-03-06T13:32:27.198Z,29.14
2019-03-06T13:34:59.639Z,29.15
2019-03-06T13:37:27.191Z,28.26
2019-03-06T13:39:54.724Z,28.44
2019-03-06T13:42:22.274Z,28.80
2019-03-06T13:44:49.796Z,29.48
2019-03-06T13:47:17.413Z,29.40
2019-03-06T13:49:44.857Z,29.47
2019-03-06T13:52:12.656Z,29.85
2019-03-06T13:54:40.135Z,28.45
2019-03-06T13:57:07.835Z,28.13
2019-03-06T13:59:35.357Z,28.97
2019-03-06T14:02:02.952Z,29.34
2019-03-06T14:04:31.009Z,27.72
2019-03-06T14:06:58.665Z,28.21
2019-03-06T14:09:26.512Z,27.43
2019-03-06T14:11:54.000Z,27.51
2019-03-06T14:14:21.390Z,27.79
2019-03-06T14:16:48.885Z,27.80
2019-03-06T14:19:16.408Z,27.71
2019-03-06T14:21:43.977Z,28.45
2019-03-06T14:24:11.553Z,28.48
2019-03-06T14:26:39.421Z,28.57
2019-03-06T14:29:07.089Z,28.60
2019-03-06T14:31:34.544Z,29.13
2019-03-06T14:34:02.127Z,28.63
2019-03-06T14:36:30.380Z,28.04
2019-03-06T14:38:57.927Z,28.50
2019-03-06T14:41:25.748Z,28.48
2019-03-06T14:43:53.230Z,28.49
2019-03-06T14:46:20.735Z,28.95
2019-03-06T14:48:48.258Z,28.36
2019-03-06T14:51:15.888Z,28.98
2019-03-06T14:53:43.538Z,29.37
2019-03-06T14:56:11.203Z,30.06
2019-03-06T14:58:38.759Z,29.73
2019-03-06T15:01:06.537Z,29.18
2019-03-06T15:03:33.967Z,28.28
2019-03-06T15:06:01.731Z,28.27
2019-03-06T15:08:29.572Z,28.30
2019-03-06T15:10:57.205Z,28.65
2019-03-06T15:13:24.720Z,28.78
2019-03-06T15:15:52.684Z,28.85
2019-03-06T15:18:20.535Z,28.34
2019-03-06T15:20:47.922Z,28.24
2019-03-06T15:23:15.409Z,28.35
2019-03-06T15:25:42.903Z,28.46
2019-03-06T15:28:10.601Z,28.41
2019-03-06T15:30:39.889Z,28.75
2019-03-06T15:33:07.765Z,28.53
2019-03-06T15:35:35.217Z,28.45
2019-03-06T15:38:04.491Z,28.94
2019-03-06T15:40:32.537Z,29.10
2019-03-06T15:43:00.315Z,29.23
2019-03-06T15:45:28.899Z,29.23
2019-03-06T15:47:56.777Z,29.33
2019-03-06T15:50:24.516Z,29.03
2019-03-06T15:52:52.184Z,29.17
2019-03-06T15:55:22.995Z,29.36
2019-03-06T15:57:50.454Z,29.47
2019-03-06T16:00:32.214Z,29.38
2019-03-06T16:02:59.945Z,29.39
2019-03-06T16:05:27.338Z,29.22
2019-03-06T16:07:56.488Z,29.21
2019-03-06T16:10:24.264Z,29.21
2019-03-06T16:12:51.855Z,28.60
2019-03-06T16:15:20.057Z,29.07
2019-03-06T16:17:47.527Z,28.47
2019-03-06T16:20:16.441Z,28.96
2019-03-06T16:22:44.719Z,28.44
2019-03-06T16:25:13.289Z,28.17
2019-03-06T16:27:40.879Z,27.92
2019-03-06T16:30:10.390Z,27.91
2019-03-06T16:32:37.976Z,27.79
2019-03-06T16:35:07.432Z,27.67
2019-03-06T16:37:35.462Z,28.03
2019-03-06T16:40:08.026Z,28.40
2019-03-06T16:42:35.651Z,28.19
2019-03-06T16:45:04.129Z,28.53
2019-03-06T16:47:31.697Z,28.45
2019-03-06T16:49:59.175Z,28.45
2019-03-06T16:52:26.694Z,28.54
2019-03-06T16:54:54.388Z,29.10
2019-03-06T16:57:23.859Z,29.00
2019-03-06T16:59:51.728Z,29.68
2019-03-06T17:02:19.157Z,29.18
2019-03-06T17:04:46.880Z,30.02
2019-03-06T17:07:14.424Z,28.91
2019-03-06T17:09:41.854Z,28.63
2019-03-06T17:12:09.709Z,29.98
2019-03-06T17:14:37.611Z,30.49
2019-03-06T17:17:05.610Z,30.52
2019-03-06T17:19:33.127Z,30.95
2019-03-06T17:22:00.777Z,31.51
2019-03-06T17:24:28.387Z,31.95
2019-03-06T17:26:55.776Z,31.74
2019-03-06T17:29:23.276Z,32.60
2019-03-06T17:31:50.828Z,32.86
2019-03-06T17:34:18.363Z,32.26
2019-03-06T17:36:46.312Z,32.30
2019-03-06T17:39:15.397Z,33.00
2019-03-06T17:41:42.930Z,33.51
2019-03-06T17:44:11.222Z,33.85
2019-03-06T17:46:38.891Z,33.84
2019-03-06T17:49:06.674Z,33.87
2019-03-06T17:51:34.268Z,34.45
2019-03-06T17:54:01.824Z,34.97
2019-03-06T17:56:29.604Z,35.25
2019-03-06T17:58:57.093Z,36.17
2019-03-06T18:01:24.737Z,35.60
2019-03-06T18:04:05.427Z,36.19
2019-03-06T18:06:32.932Z,36.63
2019-03-06T18:09:00.460Z,36.07
2019-03-06T18:11:27.948Z,35.97
2019-03-06T18:13:55.495Z,35.94
2019-03-06T18:16:23.072Z,35.74
2019-03-06T18:18:50.888Z,36.14
2019-03-06T18:21:18.392Z,35.75
2019-03-06T18:23:45.915Z,35.88
2019-03-06T18:26:13.465Z,36.25
2019-03-06T18:28:40.928Z,36.34
2019-03-06T18:31:08.625Z,36.89
2019-03-06T18:33:36.164Z,37.00
2019-03-06T18:36:03.772Z,37.20
2019-03-06T18:38:31.221Z,37.22
2019-03-06T18:40:58.785Z,37.59
2019-03-06T18:43:26.339Z,37.29
2019-03-06T18:45:53.823Z,37.24
2019-03-06T18:48:21.445Z,37.31
2019-03-06T18:50:49.053Z,37.31
2019-03-06T18:53:16.791Z,37.54
2019-03-06T18:55:44.232Z,37.83
2019-03-06T18:58:13.078Z,37.95
2019-03-06T19:00:41.136Z,38.59
2019-03-06T19:03:10.236Z,38.68
2019-03-06T19:05:37.860Z,38.21
2019-03-06T19:08:05.432Z,38.23
2019-03-06T19:10:33.735Z,37.88
2019-03-06T19:13:01.237Z,37.68
2019-03-06T19:15:29.207Z,38.44
2019-03-06T19:17:57.041Z,38.75
2019-03-06T19:20:24.751Z,39.44
2019-03-06T19:22:53.075Z,39.26
2019-03-06T19:25:21.073Z,40.48
2019-03-06T19:27:49.100Z,41.49
2019-03-06T19:30:18.648Z,42.27
2019-03-06T19:32:46.647Z,43.26
2019-03-06T19:35:14.631Z,43.44
2019-03-06T19:37:42.287Z,43.11
2019-03-06T19:40:10.055Z,42.04
2019-03-06T19:42:37.506Z,42.30
2019-03-06T19:45:05.638Z,42.09
2019-03-06T19:47:33.104Z,42.56
2019-03-06T19:50:00.666Z,42.73
2019-03-06T19:52:28.189Z,43.02
2019-03-06T19:54:55.628Z,42.92
2019-03-06T19:57:23.732Z,43.68
2019-03-06T19:59:51.612Z,44.26
2019-03-06T20:02:19.281Z,44.96
2019-03-06T20:04:46.823Z,44.95
2019-03-06T20:07:14.288Z,44.50
2019-03-06T20:09:41.764Z,44.97
2019-03-06T20:12:09.332Z,44.54
2019-03-06T20:14:37.051Z,43.68
2019-03-06T20:17:04.758Z,43.58
2019-03-06T20:19:32.460Z,43.42
2019-03-06T20:22:02.036Z,43.54
2019-03-06T20:24:29.740Z,44.00
2019-03-06T20:26:57.159Z,43.50
2019-03-06T20:29:25.039Z,43.99
2019-03-06T20:31:53.088Z,43.17
2019-03-06T20:34:20.579Z,43.04
2019-03-06T20:36:48.257Z,43.06
2019-03-06T20:39:16.387Z,43.07
2019-03-06T20:41:44.120Z,43.22
2019-03-06T20:44:11.799Z,43.23
2019-03-06T20:46:39.263Z,44.45
2019-03-06T20:49:06.782Z,44.54
2019-03-06T20:51:34.377Z,43.81
2019-03-06T20:54:02.157Z,43.53
2019-03-06T20:56:29.748Z,43.66
2019-03-06T20:58:57.867Z,44.45
2019-03-06T21:01:25.913Z,43.68
2019-03-06T21:03:53.586Z,43.40
2019-03-06T21:06:21.806Z,42.42
2019-03-06T21:08:49.245Z,42.12
2019-03-06T21:11:16.876Z,42.16
2019-03-06T21:13:44.425Z,42.33
2019-03-06T21:16:11.811Z,43.49
2019-03-06T21:18:39.507Z,43.52
2019-03-06T21:21:07.059Z,44.44
2019-03-06T21:23:34.566Z,43.60
2019-03-06T21:26:02.166Z,44.20
2019-03-06T21:28:29.605Z,44.46
2019-03-06T21:30:57.181Z,43.78
2019-03-06T21:33:24.644Z,44.80
2019-03-06T21:35:52.415Z,44.65
2019-03-06T21:38:20.413Z,45.51
2019-03-06T21:40:47.852Z,45.16
2019-03-06T21:43:15.313Z,45.37
2019-03-06T21:45:42.804Z,46.55
2019-03-06T21:48:10.291Z,46.55
2019-03-06T21:50:37.754Z,46.67
2019-03-06T21:53:05.317Z,46.04
2019-03-06T21:55:32.759Z,46.55
2019-03-06T21:58:00.224Z,46.40
2019-03-06T22:00:27.605Z,46.67
2019-03-06T22:02:55.102Z,48.54
2019-03-06T22:05:22.642Z,49.20
2019-03-06T22:07:50.860Z,49.01
2019-03-06T22:10:18.974Z,49.37
2019-03-06T22:12:46.402Z,49.92
2019-03-06T22:15:14.216Z,50.07
2019-03-06T22:17:41.682Z,50.78
2019-03-06T22:20:10.157Z,50.41
2019-03-06T22:22:37.631Z,52.11
2019-03-06T22:25:05.416Z,50.43
2019-03-06T22:27:33.286Z,51.24
2019-03-06T22:30:00.724Z,51.53
2019-03-06T22:32:28.121Z,50.79
2019-03-06T22:34:55.637Z,51.39
2019-03-06T22:37:23.117Z,51.51
2019-03-06T22:39:50.552Z,51.78
2019-03-06T22:42:17.976Z,50.65
2019-03-06T22:44:45.429Z,50.11
2019-03-06T22:47:12.906Z,50.62
2019-03-06T22:49:40.367Z,49.24
2019-03-06T22:52:07.773Z,49.64
2019-03-06T22:54:35.386Z,49.95
2019-03-06T22:57:02.842Z,49.66
2019-03-06T22:59:30.276Z,49.80
2019-03-06T23:01:58.116Z,49.67
2019-03-06T23:04:25.581Z,51.70
2019-03-06T23:06:53.054Z,52.27
2019-03-06T23:09:20.687Z,51.79
2019-03-06T23:11:48.253Z,50.91
2019-03-06T23:14:15.816Z,49.76
2019-03-06T23:16:43.214Z,50.69
2019-03-06T23:19:10.631Z,49.81
2019-03-06T23:21:38.217Z,49.95
2019-03-06T23:24:05.642Z,50.24
2019-03-06T23:26:42.245Z,51.35
2019-03-06T23:29:02.545Z,50.87
2019-03-06T23:31:29.985Z,50.63
2019-03-06T23:33:57.572Z,52.46
2019-03-06T23:36:25.025Z,51.68
2019-03-06T23:38:52.476Z,51.18
2019-03-06T23:41:19.886Z,51.78
2019-03-06T23:43:47.388Z,53.39
2019-03-06T23:46:14.847Z,50.77
2019-03-06T23:48:42.308Z,51.75
2019-03-06T23:51:16.353Z,52.20
2019-03-06T23:53:54.444Z,53.08
2019-03-06T23:56:22.010Z,54.94
2019-03-06T23:58:49.446Z,52.20
